createdAt,value
2017-08-09T00:00:09.398Z,19.10
2017-08-09T00:02:43.933Z,19.10
2017-08-09T00:05:17.607Z,19.10
2017-08-09T00:07:51.951Z,19.00
2017-08-09T00:10:26.277Z,19.00
2017-08-09T00:12:59.827Z,19.00
2017-08-09T00:15:34.248Z,19.00
2017-08-09T00:18:07.828Z,19.00
2017-08-09T00:20:42.145Z,19.00
2017-08-09T00:23:15.758Z,19.00
2017-08-09T00:25:50.952Z,19.00
2017-08-09T00:28:25.428Z,19.00
2017-08-09T00:30:59.037Z,19.00
2017-08-09T00:33:32.858Z,18.90
2017-08-09T00:36:06.561Z,19.00
2017-08-09T00:38:40.882Z,19.00
2017-08-09T00:41:14.685Z,19.00
2017-08-09T00:43:48.409Z,19.10
2017-08-09T00:46:22.087Z,19.10
2017-08-09T00:48:55.901Z,19.10
2017-08-09T00:51:30.438Z,19.10
2017-08-09T00:54:04.302Z,19.10
2017-08-09T00:56:38.023Z,19.10
2017-08-09T00:59:11.631Z,19.00
2017-08-09T01:01:45.228Z,19.00
2017-08-09T01:04:18.814Z,18.90
2017-08-09T01:06:53.214Z,19.00
2017-08-09T01:09:26.865Z,19.00
2017-08-09T01:12:00.538Z,19.00
2017-08-09T01:14:34.374Z,19.00
2017-08-09T01:17:08.487Z,19.00
2017-08-09T01:19:42.193Z,19.00
2017-08-09T01:22:16.306Z,18.90
2017-08-09T01:24:49.886Z,18.90
2017-08-09T01:27:23.496Z,18.90
2017-08-09T01:29:57.801Z,18.90
2017-08-09T01:32:31.390Z,18.90
2017-08-09T01:35:05.156Z,18.90
2017-08-09T01:37:38.890Z,18.90
2017-08-09T01:40:13.339Z,18.90
2017-08-09T01:42:47.790Z,18.90
2017-08-09T01:45:22.389Z,18.90
2017-08-09T01:47:55.830Z,18.90
2017-08-09T01:50:29.446Z,18.90
2017-08-09T01:53:03.074Z,18.90
2017-08-09T01:55:36.685Z,18.90
2017-08-09T01:58:10.382Z,19.00
2017-08-09T02:00:44.103Z,19.00
2017-08-09T02:03:17.678Z,19.00
2017-08-09T02:05:51.382Z,18.90
2017-08-09T02:08:24.937Z,18.90
2017-08-09T02:10:59.402Z,18.90
2017-08-09T02:13:32.970Z,18.90
2017-08-09T02:16:06.612Z,18.90
2017-08-09T02:18:40.419Z,18.90
2017-08-09T02:21:14.228Z,18.90
2017-08-09T02:23:47.918Z,18.90
2017-08-09T02:26:21.401Z,18.90
2017-08-09T02:28:55.346Z,18.90
2017-08-09T02:31:29.135Z,18.90
2017-08-09T02:34:02.830Z,19.00
2017-08-09T02:36:36.427Z,19.00
2017-08-09T02:39:10.827Z,18.90
2017-08-09T02:41:44.456Z,18.90
2017-08-09T02:44:18.063Z,19.00
2017-08-09T02:46:51.650Z,18.90
2017-08-09T02:49:25.263Z,18.90
2017-08-09T02:51:58.720Z,18.90
2017-08-09T02:54:32.455Z,19.00
2017-08-09T02:57:06.982Z,19.00
2017-08-09T02:59:40.908Z,18.90
2017-08-09T03:02:14.550Z,19.00
2017-08-09T03:04:48.391Z,18.90
2017-08-09T03:07:22.716Z,18.90
2017-08-09T03:09:56.626Z,18.90
2017-08-09T03:12:30.297Z,19.00
2017-08-09T03:15:03.950Z,18.90
2017-08-09T03:17:37.431Z,18.90
2017-08-09T03:20:11.089Z,18.90
2017-08-09T03:22:45.450Z,18.90
2017-08-09T03:25:18.950Z,18.90
2017-08-09T03:27:52.759Z,18.90
2017-08-09T03:30:26.363Z,18.80
2017-08-09T03:33:00.866Z,18.80
2017-08-09T03:35:34.569Z,18.70
2017-08-09T03:38:08.382Z,18.70
2017-08-09T03:40:42.182Z,18.70
2017-08-09T03:43:15.736Z,18.70
2017-08-09T03:45:49.322Z,18.70
2017-08-09T03:48:23.134Z,18.70
2017-08-09T03:50:58.235Z,18.70
2017-08-09T03:53:32.642Z,18.60
2017-08-09T03:56:06.112Z,18.60
2017-08-09T03:58:40.458Z,18.60
2017-08-09T04:01:14.779Z,18.60
2017-08-09T04:03:48.997Z,18.60
2017-08-09T04:06:23.406Z,18.50
2017-08-09T04:08:57.107Z,18.50
2017-08-09T04:11:30.711Z,18.50
2017-08-09T04:14:04.408Z,18.50
2017-08-09T04:16:37.994Z,18.40
2017-08-09T04:19:11.727Z,18.50
2017-08-09T04:21:45.162Z,18.50
2017-08-09T04:24:18.817Z,18.50
2017-08-09T04:26:53.234Z,18.50
2017-08-09T04:29:26.943Z,18.40
2017-08-09T04:32:01.256Z,18.40
2017-08-09T04:34:34.753Z,18.40
2017-08-09T04:37:08.242Z,18.40
2017-08-09T04:39:42.050Z,18.50
2017-08-09T04:42:15.833Z,18.50
2017-08-09T04:44:49.626Z,18.50
2017-08-09T04:47:23.371Z,18.50
2017-08-09T04:49:57.078Z,18.40
2017-08-09T04:52:30.678Z,18.40
2017-08-09T04:55:04.384Z,18.40
2017-08-09T04:57:37.931Z,18.40
2017-08-09T05:00:11.794Z,18.40
2017-08-09T05:02:45.392Z,18.40
2017-08-09T05:05:18.946Z,18.40
2017-08-09T05:07:52.678Z,18.40
2017-08-09T05:10:26.589Z,18.30
2017-08-09T05:13:00.325Z,18.40
2017-08-09T05:15:34.215Z,18.30
2017-08-09T05:18:07.880Z,18.40
2017-08-09T05:20:41.635Z,18.50
2017-08-09T05:23:15.189Z,18.50
2017-08-09T05:25:49.027Z,18.50
2017-08-09T05:28:22.738Z,18.50
2017-08-09T05:30:56.430Z,18.50
2017-08-09T05:33:30.120Z,18.50
2017-08-09T05:36:03.826Z,18.60
2017-08-09T05:38:37.350Z,18.60
2017-08-09T05:41:11.133Z,18.60
2017-08-09T05:43:44.737Z,18.60
2017-08-09T05:46:18.239Z,18.60
2017-08-09T05:48:51.939Z,18.60
2017-08-09T05:51:25.390Z,18.60
2017-08-09T05:53:59.030Z,18.60
2017-08-09T05:56:33.346Z,18.60
2017-08-09T05:59:07.026Z,18.60
2017-08-09T06:01:40.653Z,18.60
2017-08-09T06:04:14.458Z,18.70
2017-08-09T06:06:48.874Z,18.60
2017-08-09T06:09:22.475Z,18.70
2017-08-09T06:11:56.074Z,18.70
2017-08-09T06:14:29.679Z,18.70
2017-08-09T06:17:03.384Z,18.70
2017-08-09T06:19:36.986Z,18.70
2017-08-09T06:22:11.258Z,18.70
2017-08-09T06:24:45.110Z,18.70
2017-08-09T06:27:18.762Z,18.70
2017-08-09T06:29:52.354Z,18.70
2017-08-09T06:32:26.115Z,18.70
2017-08-09T06:34:59.705Z,18.70
2017-08-09T06:37:33.410Z,18.80
2017-08-09T06:40:06.994Z,18.80
2017-08-09T06:42:41.505Z,18.80
2017-08-09T06:45:15.304Z,18.80
2017-08-09T06:47:48.940Z,18.90
2017-08-09T06:50:22.538Z,18.90
2017-08-09T06:52:56.131Z,18.90
2017-08-09T06:55:29.634Z,18.90
2017-08-09T06:58:03.238Z,18.80
2017-08-09T07:00:37.107Z,18.80
2017-08-09T07:03:11.859Z,18.80
2017-08-09T07:05:45.684Z,18.80
2017-08-09T07:08:19.179Z,18.90
2017-08-09T07:10:52.726Z,18.90
2017-08-09T07:13:26.485Z,18.90
2017-08-09T07:16:00.163Z,18.90
2017-08-09T07:18:33.882Z,19.00
2017-08-09T07:21:07.657Z,19.00
2017-08-09T07:23:42.110Z,19.00
2017-08-09T07:26:15.713Z,19.00
2017-08-09T07:28:49.720Z,19.00
2017-08-09T07:31:23.434Z,19.10
2017-08-09T07:33:56.978Z,19.10
2017-08-09T07:36:30.831Z,19.10
2017-08-09T07:39:04.468Z,19.10
2017-08-09T07:41:39.169Z,19.20
2017-08-09T07:44:12.847Z,19.20
2017-08-09T07:46:46.554Z,19.20
2017-08-09T07:49:20.255Z,19.20
2017-08-09T07:51:54.072Z,19.30
2017-08-09T07:54:27.669Z,19.30
2017-08-09T07:57:01.170Z,19.20
2017-08-09T07:59:34.742Z,19.30
2017-08-09T08:02:08.334Z,19.30
2017-08-09T08:04:42.139Z,19.30
2017-08-09T08:07:15.854Z,19.40
2017-08-09T08:09:49.430Z,19.40
2017-08-09T08:12:23.994Z,19.50
2017-08-09T08:14:58.314Z,19.50
2017-08-09T08:17:31.989Z,19.40
2017-08-09T08:20:05.597Z,19.50
2017-08-09T08:22:39.219Z,19.50
2017-08-09T08:25:12.801Z,19.50
2017-08-09T08:27:46.522Z,19.60
2017-08-09T08:30:20.223Z,19.60
2017-08-09T08:32:53.932Z,19.60
2017-08-09T08:35:27.730Z,19.60
2017-08-09T08:38:01.536Z,19.70
2017-08-09T08:40:35.120Z,19.70
2017-08-09T08:43:08.730Z,19.80
2017-08-09T08:45:42.226Z,19.80
2017-08-09T08:48:15.786Z,19.80
2017-08-09T08:50:49.438Z,19.90
2017-08-09T08:53:23.346Z,19.90
2017-08-09T08:55:57.759Z,20.00
2017-08-09T08:58:31.466Z,19.90
2017-08-09T09:01:05.066Z,20.00
2017-08-09T09:03:39.554Z,20.00
2017-08-09T09:06:13.214Z,20.00
2017-08-09T09:08:46.945Z,20.10
2017-08-09T09:11:21.426Z,20.10
2017-08-09T09:13:55.123Z,20.10
2017-08-09T09:16:28.714Z,20.10
2017-08-09T09:19:02.319Z,20.20
2017-08-09T09:21:35.916Z,20.20
2017-08-09T09:24:10.547Z,20.20
2017-08-09T09:26:44.352Z,20.20
2017-08-09T09:29:17.852Z,20.20
2017-08-09T09:31:51.453Z,20.30
2017-08-09T09:34:25.027Z,20.30
2017-08-09T09:36:58.855Z,20.30
2017-08-09T09:39:32.411Z,20.30
2017-08-09T09:42:06.058Z,20.30
2017-08-09T09:44:39.864Z,20.30
2017-08-09T09:47:13.671Z,20.40
2017-08-09T09:49:48.298Z,20.40
2017-08-09T09:52:22.439Z,20.40
2017-08-09T09:54:56.775Z,20.50
2017-08-09T09:57:30.530Z,20.50
2017-08-09T10:00:04.129Z,20.50
2017-08-09T10:02:37.622Z,20.50
2017-08-09T10:05:11.072Z,20.60
2017-08-09T10:07:44.720Z,20.60
2017-08-09T10:10:18.332Z,20.60
2017-08-09T10:12:52.040Z,20.70
2017-08-09T10:15:25.787Z,20.70
2017-08-09T10:17:59.539Z,20.70
2017-08-09T10:20:33.276Z,20.70
2017-08-09T10:23:07.867Z,20.80
2017-08-09T10:25:41.459Z,20.70
2017-08-09T10:28:15.150Z,20.80
2017-08-09T10:30:49.274Z,20.80
2017-08-09T10:33:22.874Z,20.80
2017-08-09T10:35:57.369Z,20.90
2017-08-09T10:38:30.982Z,20.90
2017-08-09T10:41:04.590Z,21.00
2017-08-09T10:43:38.173Z,20.90
2017-08-09T10:46:12.674Z,21.00
2017-08-09T10:48:46.174Z,21.00
2017-08-09T10:51:19.770Z,21.10
2017-08-09T10:53:54.238Z,21.10
2017-08-09T10:56:27.842Z,21.10
2017-08-09T10:59:01.334Z,21.10
2017-08-09T11:01:34.835Z,21.20
2017-08-09T11:04:08.946Z,21.20
2017-08-09T11:06:42.546Z,21.30
2017-08-09T11:09:16.231Z,21.30
2017-08-09T11:11:49.818Z,21.30
2017-08-09T11:14:23.346Z,21.40
2017-08-09T11:16:56.993Z,21.40
2017-08-09T11:19:30.599Z,21.40
2017-08-09T11:22:04.351Z,21.50
2017-08-09T11:24:37.930Z,21.50
2017-08-09T11:27:11.560Z,21.50
2017-08-09T11:29:46.077Z,21.60
2017-08-09T11:32:19.687Z,21.60
2017-08-09T11:34:53.390Z,21.70
2017-08-09T11:37:27.709Z,21.80
2017-08-09T11:40:02.025Z,21.70
2017-08-09T11:42:35.628Z,21.80
2017-08-09T11:45:09.178Z,21.80
2017-08-09T11:47:42.918Z,21.80
2017-08-09T11:50:16.637Z,21.80
2017-08-09T11:52:50.854Z,21.90
2017-08-09T11:55:24.648Z,22.00
2017-08-09T11:57:58.274Z,22.00
2017-08-09T12:00:32.146Z,22.00
2017-08-09T12:03:05.954Z,22.00
2017-08-09T12:05:40.003Z,22.10
2017-08-09T12:08:14.062Z,22.10
2017-08-09T12:10:47.874Z,22.10
2017-08-09T12:13:21.579Z,22.20
2017-08-09T12:15:55.178Z,22.20
2017-08-09T12:18:29.607Z,22.20
2017-08-09T12:21:03.410Z,22.20
2017-08-09T12:23:37.929Z,22.30
2017-08-09T12:26:11.487Z,22.30
2017-08-09T12:28:45.123Z,22.30
2017-08-09T12:31:18.718Z,22.30
2017-08-09T12:33:52.489Z,22.20
2017-08-09T12:36:26.139Z,22.00
2017-08-09T12:38:59.739Z,21.90
2017-08-09T12:41:33.434Z,21.80
2017-08-09T12:44:07.143Z,22.00
2017-08-09T12:46:40.840Z,22.10
2017-08-09T12:49:15.740Z,22.20
2017-08-09T12:51:49.482Z,22.20
2017-08-09T12:54:23.178Z,22.30
2017-08-09T12:56:57.502Z,22.30
2017-08-09T12:59:31.306Z,22.30
2017-08-09T13:02:04.883Z,22.30
2017-08-09T13:04:38.474Z,22.30
2017-08-09T13:07:12.210Z,22.30
2017-08-09T13:09:45.715Z,22.30
2017-08-09T13:12:19.419Z,22.30
2017-08-09T13:14:53.114Z,22.30
2017-08-09T13:17:26.719Z,22.30
2017-08-09T13:20:00.403Z,22.20
2017-08-09T13:22:34.021Z,22.20
2017-08-09T13:25:07.822Z,22.20
2017-08-09T13:27:41.725Z,22.20
2017-08-09T13:30:15.538Z,22.20
2017-08-09T13:32:49.150Z,22.10
2017-08-09T13:35:22.739Z,22.10
2017-08-09T13:37:57.058Z,22.10
2017-08-09T13:40:30.778Z,22.10
2017-08-09T13:43:05.180Z,22.10
2017-08-09T13:45:38.797Z,22.00
2017-08-09T13:48:12.290Z,22.00
2017-08-09T13:50:46.594Z,22.00
2017-08-09T13:53:20.054Z,22.00
2017-08-09T13:55:53.686Z,22.00
2017-08-09T13:58:28.112Z,22.00
2017-08-09T14:01:01.551Z,22.00
2017-08-09T14:03:35.095Z,22.00
2017-08-09T14:06:08.701Z,22.00
2017-08-09T14:08:42.162Z,22.00
2017-08-09T14:11:15.802Z,21.90
2017-08-09T14:13:49.408Z,21.90
2017-08-09T14:16:23.106Z,21.90
2017-08-09T14:18:56.798Z,21.90
2017-08-09T14:21:30.406Z,21.90
2017-08-09T14:24:04.073Z,21.90
2017-08-09T14:26:37.812Z,21.80
2017-08-09T14:29:11.313Z,21.80
2017-08-09T14:31:44.912Z,21.80
2017-08-09T14:34:18.518Z,21.80
2017-08-09T14:36:52.079Z,21.80
2017-08-09T14:39:25.814Z,21.80
2017-08-09T14:41:59.372Z,21.80
2017-08-09T14:44:33.022Z,21.80
2017-08-09T14:47:06.588Z,21.80
2017-08-09T14:49:40.386Z,21.80
2017-08-09T14:52:14.078Z,21.80
2017-08-09T14:54:47.684Z,21.80
2017-08-09T14:57:22.146Z,21.80
2017-08-09T14:59:56.578Z,21.80
2017-08-09T15:02:30.262Z,21.80
2017-08-09T15:05:03.862Z,21.80
2017-08-09T15:07:37.571Z,21.80
2017-08-09T15:10:11.170Z,21.80
2017-08-09T15:12:44.875Z,21.80
2017-08-09T15:15:18.577Z,21.80
2017-08-09T15:17:53.110Z,21.80
2017-08-09T15:20:26.601Z,21.80
2017-08-09T15:23:01.083Z,21.80
2017-08-09T15:25:34.918Z,21.80
2017-08-09T15:28:08.465Z,21.80
2017-08-09T15:30:42.122Z,21.80
2017-08-09T15:33:15.827Z,21.80
2017-08-09T15:35:49.521Z,21.80
2017-08-09T15:38:23.155Z,21.80
2017-08-09T15:40:56.643Z,21.80
2017-08-09T15:43:30.246Z,21.80
2017-08-09T15:46:03.726Z,21.80
2017-08-09T15:48:37.326Z,21.80
2017-08-09T15:51:11.034Z,21.80
2017-08-09T15:53:44.559Z,21.80
2017-08-09T15:56:18.841Z,21.80
2017-08-09T15:58:52.547Z,21.80
2017-08-09T16:01:27.071Z,21.80
2017-08-09T16:04:00.622Z,21.80
2017-08-09T16:06:34.258Z,21.80
2017-08-09T16:09:07.870Z,21.80
2017-08-09T16:11:41.676Z,21.80
2017-08-09T16:14:15.358Z,21.70
2017-08-09T16:16:49.898Z,21.70
2017-08-09T16:19:23.505Z,21.70
2017-08-09T16:21:57.070Z,21.70
2017-08-09T16:24:31.528Z,21.70
2017-08-09T16:27:05.154Z,21.70
2017-08-09T16:29:39.648Z,21.70
2017-08-09T16:32:13.343Z,21.70
2017-08-09T16:34:46.915Z,21.70
2017-08-09T16:37:20.749Z,21.60
2017-08-09T16:39:54.359Z,21.60
2017-08-09T16:42:27.954Z,21.60
2017-08-09T16:45:01.954Z,21.70
2017-08-09T16:47:36.461Z,21.60
2017-08-09T16:50:10.010Z,21.60
2017-08-09T16:52:43.786Z,21.60
2017-08-09T16:55:17.386Z,21.60
2017-08-09T16:57:51.195Z,21.60
2017-08-09T17:00:24.789Z,21.60
2017-08-09T17:02:58.287Z,21.60
2017-08-09T17:05:31.973Z,21.60
2017-08-09T17:08:05.898Z,21.60
2017-08-09T17:10:39.806Z,21.60
2017-08-09T17:13:13.511Z,21.60
2017-08-09T17:15:47.221Z,21.60
2017-08-09T17:18:20.902Z,21.60
2017-08-09T17:20:54.566Z,21.60
2017-08-09T17:23:28.267Z,21.60
2017-08-09T17:26:02.735Z,21.60
2017-08-09T17:28:36.344Z,21.60
2017-08-09T17:31:09.942Z,21.50
2017-08-09T17:33:44.357Z,21.50
2017-08-09T17:36:17.862Z,21.50
2017-08-09T17:38:51.459Z,21.60
2017-08-09T17:41:25.069Z,21.50
2017-08-09T17:43:58.870Z,21.50
2017-08-09T17:46:32.461Z,21.50
2017-08-09T17:49:06.167Z,21.50
2017-08-09T17:51:39.758Z,21.50
2017-08-09T17:54:13.474Z,21.50
2017-08-09T17:56:47.070Z,21.50
2017-08-09T17:59:21.309Z,21.50
2017-08-09T18:01:54.996Z,21.50
2017-08-09T18:04:28.584Z,21.50
2017-08-09T18:07:02.951Z,21.50
2017-08-09T18:09:36.710Z,21.50
2017-08-09T18:12:10.424Z,21.50
2017-08-09T18:14:44.125Z,21.50
2017-08-09T18:17:17.922Z,21.50
2017-08-09T18:19:51.726Z,21.50
2017-08-09T18:22:26.666Z,21.50
2017-08-09T18:25:00.254Z,21.50
2017-08-09T18:27:34.747Z,21.50
2017-08-09T18:30:08.292Z,21.50
2017-08-09T18:32:41.774Z,21.50
2017-08-09T18:35:15.384Z,21.40
2017-08-09T18:37:48.906Z,21.50
2017-08-09T18:40:22.439Z,21.50
2017-08-09T18:42:56.062Z,21.40
2017-08-09T18:45:29.590Z,21.40
2017-08-09T18:48:03.233Z,21.40
2017-08-09T18:50:36.893Z,21.40
2017-08-09T18:53:10.481Z,21.40
2017-08-09T18:55:44.006Z,21.40
2017-08-09T18:58:17.646Z,21.30
2017-08-09T19:00:51.164Z,21.30
2017-08-09T19:03:24.794Z,21.30
2017-08-09T19:05:58.462Z,21.30
2017-08-09T19:08:31.898Z,21.30
2017-08-09T19:11:05.418Z,21.20
2017-08-09T19:13:38.934Z,21.30
2017-08-09T19:16:12.471Z,21.30
2017-08-09T19:18:46.094Z,21.20
2017-08-09T19:21:19.759Z,21.20
2017-08-09T19:23:53.195Z,21.20
2017-08-09T19:26:26.718Z,21.20
2017-08-09T19:29:00.166Z,21.20
2017-08-09T19:31:33.682Z,21.20
2017-08-09T19:34:07.191Z,21.20
2017-08-09T19:36:40.706Z,21.10
2017-08-09T19:39:14.159Z,21.10
2017-08-09T19:41:47.685Z,21.10
2017-08-09T19:44:21.130Z,21.10
2017-08-09T19:46:54.778Z,21.10
2017-08-09T19:49:28.286Z,21.10
2017-08-09T19:52:01.766Z,21.10
2017-08-09T19:54:35.347Z,21.10
2017-08-09T19:57:09.382Z,21.10
2017-08-09T19:59:42.951Z,21.00
2017-08-09T20:02:16.614Z,21.10
2017-08-09T20:04:50.063Z,21.00
2017-08-09T20:07:23.582Z,21.00
2017-08-09T20:09:57.210Z,21.00
2017-08-09T20:12:30.735Z,21.00
2017-08-09T20:15:04.238Z,21.00
2017-08-09T20:17:37.915Z,20.90
2017-08-09T20:20:11.373Z,20.90
2017-08-09T20:22:44.906Z,21.00
2017-08-09T20:25:18.529Z,21.00
2017-08-09T20:27:52.229Z,21.00
2017-08-09T20:30:25.810Z,20.90
2017-08-09T20:32:59.473Z,20.90
2017-08-09T20:35:32.978Z,20.90
2017-08-09T20:38:06.508Z,20.90
2017-08-09T20:40:40.126Z,20.90
2017-08-09T20:43:13.654Z,20.90
2017-08-09T20:45:47.170Z,20.90
2017-08-09T20:48:20.760Z,20.90
2017-08-09T20:50:54.392Z,20.90
2017-08-09T20:53:27.922Z,20.90
2017-08-09T20:56:01.444Z,20.90
2017-08-09T20:58:34.957Z,20.90
2017-08-09T21:01:08.622Z,20.90
2017-08-09T21:03:42.130Z,20.90
2017-08-09T21:06:15.639Z,20.90
2017-08-09T21:08:49.171Z,20.90
2017-08-09T21:11:22.675Z,20.80
2017-08-09T21:13:56.223Z,20.80
2017-08-09T21:16:29.882Z,20.80
2017-08-09T21:19:03.535Z,20.80
2017-08-09T21:21:37.062Z,20.80
2017-08-09T21:24:10.615Z,20.80
2017-08-09T21:26:44.198Z,20.70
2017-08-09T21:29:17.642Z,20.70
2017-08-09T21:31:51.175Z,20.70
2017-08-09T21:34:24.710Z,20.70
2017-08-09T21:36:58.262Z,20.70
2017-08-09T21:39:31.858Z,20.70
2017-08-09T21:42:05.363Z,20.70
2017-08-09T21:44:38.962Z,20.70
2017-08-09T21:47:12.531Z,20.60
2017-08-09T21:49:46.166Z,20.60
2017-08-09T21:52:19.608Z,20.60
2017-08-09T21:54:53.127Z,20.60
2017-08-09T21:57:26.669Z,20.60
2017-08-09T22:00:00.186Z,20.50
2017-08-09T22:02:33.698Z,20.60
2017-08-09T22:05:07.231Z,20.60
2017-08-09T22:07:40.934Z,20.50
2017-08-09T22:10:15.249Z,20.50
2017-08-09T22:12:48.856Z,20.50
2017-08-09T22:15:22.456Z,20.40
2017-08-09T22:17:55.982Z,20.40
2017-08-09T22:20:29.756Z,20.40
2017-08-09T22:23:03.322Z,20.40
2017-08-09T22:25:36.950Z,20.40
2017-08-09T22:28:11.226Z,20.40
2017-08-09T22:30:44.869Z,20.40
2017-08-09T22:33:18.456Z,20.40
2017-08-09T22:35:52.167Z,20.30
2017-08-09T22:38:25.751Z,20.30
2017-08-09T22:40:59.327Z,20.30
2017-08-09T22:43:32.975Z,20.30
2017-08-09T22:46:06.579Z,20.30
2017-08-09T22:48:40.218Z,20.30
2017-08-09T22:51:13.893Z,20.20
2017-08-09T22:53:48.371Z,20.20
2017-08-09T22:56:22.615Z,20.20
2017-08-09T22:58:56.824Z,20.20
2017-08-09T23:01:30.342Z,20.20
2017-08-09T23:04:03.890Z,20.20
2017-08-09T23:06:38.444Z,20.10
2017-08-09T23:09:12.042Z,20.10
2017-08-09T23:11:46.797Z,20.10
2017-08-09T23:14:20.483Z,20.10
2017-08-09T23:16:54.954Z,20.10
2017-08-09T23:19:28.708Z,20.10
2017-08-09T23:22:02.392Z,20.10
2017-08-09T23:24:35.986Z,20.10
2017-08-09T23:27:10.021Z,20.10
2017-08-09T23:29:43.750Z,20.10
2017-08-09T23:32:17.626Z,20.10
2017-08-09T23:34:52.406Z,20.10
2017-08-09T23:37:26.054Z,20.10
2017-08-09T23:39:59.661Z,20.10
2017-08-09T23:42:33.261Z,20.00
2017-08-09T23:45:06.862Z,20.00
2017-08-09T23:47:40.469Z,20.00
2017-08-09T23:50:14.173Z,20.00
2017-08-09T23:52:47.872Z,20.00
2017-08-09T23:55:21.530Z,20.00
2017-08-09T23:57:55.803Z,20.00
